createdAt,value
2018-09-22T00:02:21.294Z,10.80
2018-09-22T00:04:49.455Z,10.80
2018-09-22T00:07:17.579Z,10.80
2018-09-22T00:09:45.712Z,10.80
2018-09-22T00:12:13.857Z,10.90
2018-09-22T00:14:42.022Z,10.90
2018-09-22T00:17:10.306Z,10.90
2018-09-22T00:19:39.030Z,11.00
2018-09-22T00:22:07.195Z,11.10
2018-09-22T00:24:35.347Z,11.10
2018-09-22T00:27:03.504Z,11.10
2018-09-22T00:29:31.656Z,11.10
2018-09-22T00:31:59.893Z,11.10
2018-09-22T00:34:28.081Z,11.00
2018-09-22T00:36:56.240Z,11.00
2018-09-22T00:39:24.373Z,11.00
2018-09-22T00:41:52.531Z,11.00
2018-09-22T00:44:20.693Z,11.00
2018-09-22T00:46:48.854Z,11.00
2018-09-22T00:49:16.983Z,11.00
2018-09-22T00:51:45.159Z,11.10
2018-09-22T00:54:13.282Z,11.10
2018-09-22T00:56:41.416Z,11.10
2018-09-22T00:59:09.570Z,11.10
2018-09-22T01:01:37.726Z,11.10
2018-09-22T01:04:05.962Z,11.10
2018-09-22T01:06:34.096Z,11.10
2018-09-22T01:09:02.328Z,11.10
2018-09-22T01:11:30.478Z,11.10
2018-09-22T01:13:58.618Z,11.10
2018-09-22T01:16:26.769Z,11.10
2018-09-22T01:18:54.907Z,11.00
2018-09-22T01:21:23.897Z,10.90
2018-09-22T01:23:52.087Z,10.80
2018-09-22T01:26:20.315Z,10.70
2018-09-22T01:28:48.559Z,10.70
2018-09-22T01:31:16.682Z,10.70
2018-09-22T01:33:44.824Z,10.70
2018-09-22T01:36:12.957Z,10.70
2018-09-22T01:38:41.148Z,10.60
2018-09-22T01:41:09.250Z,10.60
2018-09-22T01:43:37.395Z,10.50
2018-09-22T01:46:05.501Z,10.60
2018-09-22T01:48:33.642Z,10.60
2018-09-22T01:51:01.758Z,10.60
2018-09-22T01:53:29.905Z,10.70
2018-09-22T01:55:58.045Z,10.70
2018-09-22T01:58:26.201Z,10.80
2018-09-22T02:00:54.305Z,10.80
2018-09-22T02:03:22.420Z,10.90
2018-09-22T02:05:50.538Z,10.90
2018-09-22T02:08:18.750Z,10.90
2018-09-22T02:10:46.885Z,10.90
2018-09-22T02:13:15.014Z,10.80
2018-09-22T02:15:43.189Z,10.70
2018-09-22T02:18:11.298Z,10.70
2018-09-22T02:20:39.536Z,10.70
2018-09-22T02:23:07.996Z,10.70
2018-09-22T02:25:36.188Z,10.70
2018-09-22T02:28:04.338Z,10.70
2018-09-22T02:30:32.478Z,10.70
2018-09-22T02:33:00.626Z,10.70
2018-09-22T02:35:28.786Z,10.70
2018-09-22T02:37:56.927Z,10.60
2018-09-22T02:40:25.084Z,10.60
2018-09-22T02:42:53.187Z,10.70
2018-09-22T02:45:21.343Z,10.60
2018-09-22T02:47:49.478Z,10.70
2018-09-22T02:50:17.634Z,10.70
2018-09-22T02:52:45.766Z,10.70
2018-09-22T02:55:13.923Z,10.80
2018-09-22T02:57:42.050Z,10.80
2018-09-22T03:00:10.282Z,10.80
2018-09-22T03:02:38.416Z,10.70
2018-09-22T03:05:06.602Z,10.70
2018-09-22T03:07:34.729Z,10.70
2018-09-22T03:10:02.901Z,10.70
2018-09-22T03:12:31.010Z,10.60
2018-09-22T03:14:59.229Z,10.70
2018-09-22T03:17:27.378Z,10.80
2018-09-22T03:19:55.484Z,10.80
2018-09-22T03:22:23.646Z,10.80
2018-09-22T03:24:51.794Z,10.80
2018-09-22T03:27:19.925Z,10.90
2018-09-22T03:29:48.047Z,10.80
2018-09-22T03:32:16.250Z,10.80
2018-09-22T03:34:44.382Z,10.80
2018-09-22T03:37:12.527Z,10.80
2018-09-22T03:39:40.681Z,10.80
2018-09-22T03:42:08.878Z,10.70
2018-09-22T03:44:37.011Z,10.70
2018-09-22T03:47:05.149Z,10.60
2018-09-22T03:49:33.274Z,10.60
2018-09-22T03:52:01.394Z,10.60
2018-09-22T03:54:29.538Z,10.70
2018-09-22T03:56:57.659Z,10.70
2018-09-22T03:59:25.814Z,10.60
2018-09-22T04:01:53.979Z,10.60
2018-09-22T04:04:22.116Z,10.60
2018-09-22T04:06:50.232Z,10.60
2018-09-22T04:09:18.367Z,10.60
2018-09-22T04:11:46.553Z,10.60
2018-09-22T04:14:14.812Z,10.50
2018-09-22T04:16:42.919Z,10.50
2018-09-22T04:19:11.072Z,10.50
2018-09-22T04:21:39.195Z,10.50
2018-09-22T04:24:15.555Z,10.50
2018-09-22T04:26:43.694Z,10.50
2018-09-22T04:29:11.842Z,10.50
2018-09-22T04:31:39.973Z,10.40
2018-09-22T04:34:08.123Z,10.40
2018-09-22T04:36:36.289Z,10.40
2018-09-22T04:39:05.400Z,10.40
2018-09-22T04:41:33.910Z,10.40
2018-09-22T04:44:02.070Z,10.40
2018-09-22T04:46:30.369Z,10.40
2018-09-22T04:48:58.498Z,10.40
2018-09-22T04:51:27.169Z,10.40
2018-09-22T04:53:56.571Z,10.40
2018-09-22T04:56:24.790Z,10.40
2018-09-22T04:58:53.134Z,10.40
2018-09-22T05:01:21.274Z,10.40
2018-09-22T05:03:49.425Z,10.40
2018-09-22T05:06:17.573Z,10.50
2018-09-22T05:08:45.692Z,10.50
2018-09-22T05:11:13.805Z,10.60
2018-09-22T05:13:41.952Z,10.60
2018-09-22T05:16:10.096Z,10.60
2018-09-22T05:18:38.214Z,10.60
2018-09-22T05:21:06.457Z,10.70
2018-09-22T05:23:34.602Z,10.70
2018-09-22T05:26:03.330Z,10.70
2018-09-22T05:28:31.565Z,10.80
2018-09-22T05:31:00.081Z,10.80
2018-09-22T05:33:28.345Z,10.80
2018-09-22T05:35:56.559Z,10.90
2018-09-22T05:38:24.692Z,10.90
2018-09-22T05:40:52.834Z,11.00
2018-09-22T05:43:20.958Z,11.00
2018-09-22T05:45:49.099Z,11.00
2018-09-22T05:48:17.293Z,11.10
2018-09-22T05:50:45.470Z,11.10
2018-09-22T05:53:13.659Z,11.10
2018-09-22T05:55:41.914Z,11.10
2018-09-22T05:58:10.052Z,11.20
2018-09-22T06:00:39.569Z,11.20
2018-09-22T06:03:09.110Z,11.30
2018-09-22T06:05:37.661Z,11.30
2018-09-22T06:08:06.206Z,11.30
2018-09-22T06:10:34.638Z,11.40
2018-09-22T06:13:02.868Z,11.50
2018-09-22T06:15:30.989Z,11.50
2018-09-22T06:17:59.259Z,11.60
2018-09-22T06:20:27.398Z,11.60
2018-09-22T06:22:55.773Z,11.60
2018-09-22T06:25:23.970Z,11.70
2018-09-22T06:27:52.125Z,11.80
2018-09-22T06:30:20.267Z,11.90
2018-09-22T06:32:48.463Z,12.00
2018-09-22T06:35:16.626Z,12.20
2018-09-22T06:37:44.767Z,12.50
2018-09-22T06:40:12.999Z,12.60
2018-09-22T06:42:41.237Z,12.60
2018-09-22T06:45:09.447Z,12.60
2018-09-22T06:47:37.569Z,12.70
2018-09-22T06:50:05.740Z,13.10
2018-09-22T06:52:33.857Z,14.00
2018-09-22T06:55:02.088Z,14.60
2018-09-22T06:57:30.252Z,15.40
2018-09-22T06:59:58.405Z,16.10
2018-09-22T07:02:26.602Z,16.70
2018-09-22T07:04:54.868Z,17.80
2018-09-22T07:07:23.010Z,17.50
2018-09-22T07:09:51.178Z,17.20
2018-09-22T07:12:19.303Z,16.40
2018-09-22T07:14:47.455Z,16.00
2018-09-22T07:17:15.620Z,15.10
2018-09-22T07:19:43.749Z,15.10
2018-09-22T07:22:17.334Z,15.50
2018-09-22T07:24:45.491Z,15.40
2018-09-22T07:27:13.688Z,15.40
2018-09-22T07:29:41.859Z,15.40
2018-09-22T07:32:10.090Z,15.60
2018-09-22T07:34:38.409Z,15.40
2018-09-22T07:37:06.585Z,15.40
2018-09-22T07:39:35.026Z,15.00
2018-09-22T07:42:03.241Z,15.10
2018-09-22T07:44:31.391Z,15.40
2018-09-22T07:46:59.618Z,15.50
2018-09-22T07:49:27.750Z,15.90
2018-09-22T07:51:56.088Z,16.50
2018-09-22T07:54:24.493Z,16.60
2018-09-22T07:56:52.730Z,16.50
2018-09-22T07:59:21.013Z,16.50
2018-09-22T08:01:49.206Z,16.30
2018-09-22T08:04:17.350Z,16.60
2018-09-22T08:06:45.501Z,17.00
2018-09-22T08:09:13.655Z,16.90
2018-09-22T08:11:41.842Z,16.60
2018-09-22T08:14:09.967Z,16.50
2018-09-22T08:16:38.189Z,16.40
2018-09-22T08:19:06.335Z,16.20
2018-09-22T08:21:34.513Z,16.30
2018-09-22T08:24:02.958Z,17.20
2018-09-22T08:26:32.026Z,17.70
2018-09-22T08:29:00.287Z,18.30
2018-09-22T08:31:29.329Z,19.10
2018-09-22T08:33:57.803Z,19.30
2018-09-22T08:36:26.233Z,19.20
2018-09-22T08:38:54.214Z,18.60
2018-09-22T08:41:22.469Z,17.80
2018-09-22T08:43:50.717Z,17.60
2018-09-22T08:46:18.803Z,17.70
2018-09-22T08:48:46.981Z,17.70
2018-09-22T08:51:15.174Z,17.30
2018-09-22T08:53:43.401Z,17.70
2018-09-22T08:56:11.553Z,18.70
2018-09-22T08:58:39.841Z,18.00
2018-09-22T09:01:07.948Z,18.50
2018-09-22T09:03:36.151Z,18.70
2018-09-22T09:06:04.332Z,18.60
2018-09-22T09:08:32.532Z,18.70
2018-09-22T09:11:00.690Z,18.90
2018-09-22T09:13:28.941Z,18.50
2018-09-22T09:15:57.076Z,18.50
2018-09-22T09:18:25.266Z,18.30
2018-09-22T09:20:53.441Z,18.50
2018-09-22T09:23:21.598Z,18.10
2018-09-22T09:25:49.785Z,18.10
2018-09-22T09:28:17.898Z,18.70
2018-09-22T09:30:46.132Z,19.00
2018-09-22T09:33:14.310Z,19.20
2018-09-22T09:35:42.484Z,19.20
2018-09-22T09:38:10.644Z,19.00
2018-09-22T09:40:38.817Z,18.70
2018-09-22T09:43:07.114Z,18.30
2018-09-22T09:45:35.306Z,18.00
2018-09-22T09:48:03.543Z,18.00
2018-09-22T09:50:31.733Z,19.20
2018-09-22T09:53:00.355Z,20.00
2018-09-22T09:55:28.520Z,19.70
2018-09-22T09:57:56.677Z,19.10
2018-09-22T10:00:30.570Z,19.00
2018-09-22T10:02:58.739Z,18.90
2018-09-22T10:05:26.962Z,19.20
2018-09-22T10:07:55.131Z,18.50
2018-09-22T10:10:23.270Z,18.40
2018-09-22T10:12:51.429Z,18.20
2018-09-22T10:15:19.694Z,18.20
2018-09-22T10:17:47.911Z,17.80
2018-09-22T10:20:16.102Z,17.70
2018-09-22T10:22:44.212Z,17.70
2018-09-22T10:25:12.405Z,17.70
2018-09-22T10:27:40.562Z,18.00
2018-09-22T10:30:08.794Z,18.40
2018-09-22T10:32:37.183Z,18.20
2018-09-22T10:35:05.444Z,17.80
2018-09-22T10:37:33.906Z,18.10
2018-09-22T10:40:02.724Z,18.40
2018-09-22T10:42:30.899Z,18.80
2018-09-22T10:44:59.189Z,19.20
2018-09-22T10:47:27.421Z,19.80
2018-09-22T10:49:55.594Z,19.70
2018-09-22T10:52:23.755Z,20.00
2018-09-22T10:54:51.913Z,20.20
2018-09-22T10:57:20.082Z,20.00
2018-09-22T10:59:48.230Z,19.70
2018-09-22T11:02:16.430Z,20.30
2018-09-22T11:04:44.583Z,20.20
2018-09-22T11:07:13.182Z,19.70
2018-09-22T11:09:41.355Z,19.60
2018-09-22T11:12:09.544Z,19.40
2018-09-22T11:14:37.731Z,19.50
2018-09-22T11:17:05.907Z,19.50
2018-09-22T11:19:34.123Z,19.40
2018-09-22T11:22:02.316Z,19.10
2018-09-22T11:24:30.583Z,19.00
2018-09-22T11:26:58.808Z,18.70
2018-09-22T11:29:26.934Z,18.60
2018-09-22T11:31:56.099Z,18.40
2018-09-22T11:34:24.475Z,18.20
2018-09-22T11:36:52.862Z,18.20
2018-09-22T11:39:21.125Z,18.30
2018-09-22T11:41:49.488Z,18.40
2018-09-22T11:44:17.942Z,18.30
2018-09-22T11:46:46.244Z,18.50
2018-09-22T11:49:14.562Z,18.10
2018-09-22T11:51:43.238Z,18.00
2018-09-22T11:54:11.557Z,17.90
2018-09-22T11:56:39.845Z,17.80
2018-09-22T11:59:08.209Z,17.90
2018-09-22T12:01:36.731Z,17.80
2018-09-22T12:04:06.953Z,17.90
2018-09-22T12:06:35.509Z,18.00
2018-09-22T12:09:04.822Z,17.90
2018-09-22T12:11:33.183Z,17.90
2018-09-22T12:14:01.614Z,18.10
2018-09-22T12:16:29.893Z,18.10
2018-09-22T12:18:58.050Z,18.10
2018-09-22T12:21:26.442Z,18.10
2018-09-22T12:23:56.117Z,18.10
2018-09-22T12:26:24.376Z,18.00
2018-09-22T12:28:52.650Z,18.10
2018-09-22T12:31:20.915Z,18.40
2018-09-22T12:33:49.122Z,18.60
2018-09-22T12:36:17.439Z,18.70
2018-09-22T12:38:45.583Z,18.80
2018-09-22T12:41:13.777Z,18.50
2018-09-22T12:43:42.017Z,18.40
2018-09-22T12:46:10.282Z,18.40
2018-09-22T12:48:38.379Z,18.30
2018-09-22T12:51:06.642Z,18.40
2018-09-22T12:53:34.824Z,18.30
2018-09-22T12:56:03.020Z,18.30
2018-09-22T12:58:31.227Z,18.20
2018-09-22T13:00:59.414Z,18.40
2018-09-22T13:03:27.665Z,18.10
2018-09-22T13:05:55.861Z,18.10
2018-09-22T13:08:24.135Z,18.00
2018-09-22T13:10:52.410Z,17.70
2018-09-22T13:13:20.675Z,17.80
2018-09-22T13:15:48.833Z,17.80
2018-09-22T13:18:17.347Z,17.70
2018-09-22T13:20:45.526Z,17.70
2018-09-22T13:23:13.682Z,17.70
2018-09-22T13:25:41.858Z,17.50
2018-09-22T13:28:10.009Z,17.40
2018-09-22T13:30:38.143Z,17.30
2018-09-22T13:33:05.957Z,17.40
2018-09-22T13:35:34.279Z,17.40
2018-09-22T13:38:02.609Z,17.40
2018-09-22T13:40:30.799Z,17.40
2018-09-22T13:42:58.978Z,17.70
2018-09-22T13:45:27.141Z,17.70
2018-09-22T13:47:55.806Z,17.60
2018-09-22T13:50:23.969Z,17.60
2018-09-22T13:52:52.145Z,17.40
2018-09-22T13:55:20.463Z,17.40
2018-09-22T13:57:48.606Z,17.30
2018-09-22T14:00:16.767Z,17.30
2018-09-22T14:02:44.922Z,17.10
2018-09-22T14:05:13.244Z,17.10
2018-09-22T14:07:41.551Z,16.90
2018-09-22T14:10:09.795Z,16.80
2018-09-22T14:12:37.933Z,16.70
2018-09-22T14:15:06.130Z,16.50
2018-09-22T14:17:34.362Z,16.30
2018-09-22T14:20:02.705Z,16.20
2018-09-22T14:22:30.900Z,16.20
2018-09-22T14:24:59.264Z,16.20
2018-09-22T14:27:27.503Z,16.20
2018-09-22T14:29:55.698Z,16.20
2018-09-22T14:32:23.869Z,16.20
2018-09-22T14:34:52.146Z,16.30
2018-09-22T14:37:20.430Z,16.30
2018-09-22T14:39:48.687Z,16.30
2018-09-22T14:42:16.918Z,16.30
2018-09-22T14:44:45.157Z,16.20
2018-09-22T14:47:13.340Z,16.30
2018-09-22T14:49:41.641Z,16.30
2018-09-22T14:52:09.897Z,16.30
2018-09-22T14:54:38.327Z,16.20
2018-09-22T14:57:07.155Z,16.20
2018-09-22T14:59:35.322Z,16.00
2018-09-22T15:02:03.549Z,15.80
2018-09-22T15:04:31.918Z,15.10
2018-09-22T15:07:00.152Z,14.20
2018-09-22T15:09:28.349Z,13.70
2018-09-22T15:11:56.733Z,13.50
2018-09-22T15:14:24.966Z,13.30
2018-09-22T15:16:53.278Z,13.20
2018-09-22T15:19:21.492Z,13.20
2018-09-22T15:21:49.756Z,13.10
2018-09-22T15:24:17.951Z,13.10
2018-09-22T15:26:46.130Z,13.00
2018-09-22T15:29:14.375Z,13.00
2018-09-22T15:31:42.542Z,12.90
2018-09-22T15:34:10.752Z,12.90
2018-09-22T15:36:39.798Z,12.70
2018-09-22T15:39:08.735Z,12.70
2018-09-22T15:41:37.106Z,12.60
2018-09-22T15:44:05.322Z,12.60
2018-09-22T15:46:33.554Z,12.60
2018-09-22T15:49:01.807Z,12.50
2018-09-22T15:51:30.020Z,12.50
2018-09-22T15:53:58.484Z,12.50
2018-09-22T15:56:26.758Z,12.40
2018-09-22T15:58:54.907Z,12.40
2018-09-22T16:01:23.060Z,12.30
2018-09-22T16:03:51.239Z,12.20
2018-09-22T16:06:20.314Z,12.20
2018-09-22T16:08:48.690Z,12.20
2018-09-22T16:11:16.901Z,12.20
2018-09-22T16:13:45.105Z,12.10
2018-09-22T16:16:13.432Z,12.10
2018-09-22T16:18:41.793Z,12.10
2018-09-22T16:21:10.214Z,12.00
2018-09-22T16:23:39.530Z,12.00
2018-09-22T16:26:08.694Z,12.00
2018-09-22T16:28:36.824Z,11.90
2018-09-22T16:31:05.046Z,11.90
2018-09-22T16:33:33.291Z,11.80
2018-09-22T16:36:01.531Z,11.80
2018-09-22T16:38:30.237Z,11.80
2018-09-22T16:40:58.826Z,11.70
2018-09-22T16:43:27.200Z,11.70
2018-09-22T16:45:55.354Z,11.70
2018-09-22T16:48:23.590Z,11.80
2018-09-22T16:50:51.832Z,11.70
2018-09-22T16:53:20.088Z,11.70
2018-09-22T16:55:49.258Z,11.70
2018-09-22T16:58:17.531Z,11.70
2018-09-22T17:00:45.968Z,11.70
2018-09-22T17:03:14.273Z,11.60
2018-09-22T17:05:42.686Z,11.60
2018-09-22T17:08:11.143Z,11.50
2018-09-22T17:10:39.500Z,11.50
2018-09-22T17:13:07.871Z,11.50
2018-09-22T17:15:36.048Z,11.50
2018-09-22T17:18:04.292Z,11.50
2018-09-22T17:20:32.482Z,11.50
2018-09-22T17:23:00.878Z,11.50
2018-09-22T17:25:29.490Z,11.40
2018-09-22T17:27:57.920Z,11.40
2018-09-22T17:30:26.194Z,11.40
2018-09-22T17:32:54.358Z,11.40
2018-09-22T17:35:22.603Z,11.40
2018-09-22T17:37:51.310Z,11.40
2018-09-22T17:40:19.555Z,11.30
2018-09-22T17:42:48.101Z,11.40
2018-09-22T17:45:16.440Z,11.30
2018-09-22T17:47:44.832Z,11.40
2018-09-22T17:50:13.035Z,11.30
2018-09-22T17:52:41.285Z,11.30
2018-09-22T17:55:09.598Z,11.30
2018-09-22T17:57:37.806Z,11.30
2018-09-22T18:00:06.127Z,11.20
2018-09-22T18:02:34.431Z,11.20
2018-09-22T18:05:02.690Z,11.20
2018-09-22T18:07:30.995Z,11.20
2018-09-22T18:09:59.416Z,11.10
2018-09-22T18:12:28.159Z,11.20
2018-09-22T18:14:56.662Z,11.10
2018-09-22T18:17:24.928Z,11.10
2018-09-22T18:19:53.126Z,11.10
2018-09-22T18:22:21.323Z,11.00
2018-09-22T18:24:49.660Z,11.10
2018-09-22T18:27:18.053Z,11.10
2018-09-22T18:29:46.396Z,11.10
2018-09-22T18:32:14.701Z,11.10
2018-09-22T18:34:43.065Z,11.00
2018-09-22T18:37:11.283Z,11.10
2018-09-22T18:39:39.622Z,11.10
2018-09-22T18:42:08.352Z,11.10
2018-09-22T18:44:36.523Z,11.00
2018-09-22T18:47:05.001Z,10.90
2018-09-22T18:49:33.466Z,10.80
2018-09-22T18:52:01.875Z,10.80
2018-09-22T18:54:30.240Z,10.70
2018-09-22T18:56:58.447Z,10.70
2018-09-22T18:59:26.902Z,10.70
2018-09-22T19:01:55.065Z,10.70
2018-09-22T19:04:23.299Z,10.60
2018-09-22T19:06:51.733Z,10.60
2018-09-22T19:09:20.184Z,10.60
2018-09-22T19:11:48.587Z,10.60
2018-09-22T19:14:28.354Z,10.60
2018-09-22T19:17:02.017Z,10.60
2018-09-22T19:19:33.822Z,10.50
2018-09-22T19:22:10.523Z,10.50
2018-09-22T19:24:44.040Z,10.50
2018-09-22T19:27:17.352Z,10.50
2018-09-22T19:29:50.604Z,10.50
2018-09-22T19:32:28.450Z,10.50
2018-09-22T19:35:00.038Z,10.50
2018-09-22T19:38:04.150Z,10.50
2018-09-22T19:40:41.128Z,10.50
2018-09-22T19:43:28.965Z,10.50
2018-09-22T19:46:01.967Z,10.60
2018-09-22T19:48:36.860Z,10.60
2018-09-22T19:51:07.881Z,10.70
2018-09-22T19:53:37.493Z,10.70
2018-09-22T19:56:06.207Z,10.70
2018-09-22T19:58:34.667Z,10.80
2018-09-22T20:01:03.005Z,10.80
2018-09-22T20:03:31.425Z,10.80
2018-09-22T20:05:59.902Z,10.80
2018-09-22T20:08:28.525Z,10.80
2018-09-22T20:10:56.950Z,10.80
2018-09-22T20:13:25.483Z,10.90
2018-09-22T20:15:53.798Z,10.90
2018-09-22T20:18:22.398Z,10.90
2018-09-22T20:20:50.943Z,10.80
2018-09-22T20:23:19.574Z,10.90
2018-09-22T20:25:48.121Z,10.90
2018-09-22T20:28:16.479Z,11.00
2018-09-22T20:30:44.997Z,11.00
2018-09-22T20:33:13.476Z,11.00
2018-09-22T20:35:41.890Z,11.00
2018-09-22T20:38:10.238Z,11.00
2018-09-22T20:40:38.574Z,11.00
2018-09-22T20:43:06.971Z,11.00
2018-09-22T20:45:35.689Z,11.00
2018-09-22T20:48:04.327Z,11.00
2018-09-22T20:50:32.874Z,11.00
2018-09-22T20:53:01.223Z,11.00
2018-09-22T20:55:29.804Z,11.10
2018-09-22T20:57:58.122Z,11.10
2018-09-22T21:00:26.404Z,11.00
2018-09-22T21:02:54.853Z,11.00
2018-09-22T21:05:23.634Z,11.10
2018-09-22T21:07:52.419Z,11.00
2018-09-22T21:12:56.078Z,11.00
2018-09-22T21:15:24.635Z,11.00
2018-09-22T21:17:53.018Z,11.00
2018-09-22T21:20:21.318Z,11.00
2018-09-22T21:22:49.598Z,10.90
2018-09-22T21:25:18.249Z,11.00
2018-09-22T21:27:46.817Z,11.00
2018-09-22T21:30:15.854Z,11.00
2018-09-22T21:32:44.388Z,10.90
2018-09-22T21:35:12.806Z,10.90
2018-09-22T21:37:41.208Z,11.00
2018-09-22T21:40:09.445Z,11.00
2018-09-22T21:42:37.774Z,11.00
2018-09-22T21:45:06.041Z,11.00
2018-09-22T21:47:34.429Z,11.00
2018-09-22T21:50:02.968Z,11.00
2018-09-22T21:52:31.555Z,11.00
2018-09-22T21:55:00.035Z,11.10
2018-09-22T21:57:28.688Z,11.00
2018-09-22T21:59:57.054Z,11.00
2018-09-22T22:02:25.352Z,11.00
2018-09-22T22:04:53.633Z,11.00
2018-09-22T22:07:21.892Z,11.00
2018-09-22T22:09:50.266Z,10.90
2018-09-22T22:12:19.426Z,10.90
2018-09-22T22:14:47.941Z,10.90
2018-09-22T22:17:16.444Z,11.00
2018-09-22T22:19:44.878Z,11.00
2018-09-22T22:22:13.567Z,11.00
2018-09-22T22:24:41.766Z,11.00
2018-09-22T22:27:10.132Z,11.00
2018-09-22T22:29:38.537Z,11.00
2018-09-22T22:32:06.910Z,11.00
2018-09-22T22:34:35.585Z,11.00
2018-09-22T22:37:04.190Z,10.90
2018-09-22T22:39:32.802Z,10.90
2018-09-22T22:42:01.251Z,10.90
2018-09-22T22:44:29.550Z,10.90
2018-09-22T22:46:57.888Z,10.90
2018-09-22T22:49:26.174Z,10.90
2018-09-22T22:51:54.481Z,10.80
2018-09-22T22:54:23.228Z,10.80
2018-09-22T22:56:51.922Z,10.90
2018-09-22T22:59:20.667Z,10.80
2018-09-22T23:01:49.301Z,10.80
2018-09-22T23:04:17.789Z,10.80
2018-09-22T23:06:46.136Z,10.80
2018-09-22T23:09:14.350Z,10.80
2018-09-22T23:11:42.655Z,10.80
2018-09-22T23:14:11.107Z,10.80
2018-09-22T23:16:39.685Z,10.80
2018-09-22T23:19:08.097Z,10.80
2018-09-22T23:21:36.871Z,10.80
2018-09-22T23:24:05.523Z,10.80
2018-09-22T23:26:33.943Z,10.90
2018-09-22T23:29:02.195Z,10.80
2018-09-22T23:31:30.505Z,10.80
2018-09-22T23:33:58.735Z,10.80
2018-09-22T23:36:27.106Z,10.90
2018-09-22T23:38:55.750Z,10.90
2018-09-22T23:41:24.661Z,10.90
2018-09-22T23:43:53.548Z,10.90
2018-09-22T23:46:21.830Z,10.90
2018-09-22T23:48:50.419Z,10.90
2018-09-22T23:51:19.409Z,10.90
2018-09-22T23:53:47.705Z,10.90
2018-09-22T23:56:15.969Z,10.80
2018-09-22T23:58:44.239Z,10.80
